createdAt,value
2017-11-23T00:01:25.831Z,98.40
2017-11-23T00:03:54.070Z,98.40
2017-11-23T00:06:21.486Z,98.10
2017-11-23T00:08:49.706Z,97.00
2017-11-23T00:11:17.152Z,96.90
2017-11-23T00:13:44.613Z,97.40
2017-11-23T00:16:12.086Z,97.60
2017-11-23T00:18:39.574Z,97.50
2017-11-23T00:21:07.019Z,97.20
2017-11-23T00:23:34.480Z,97.60
2017-11-23T00:26:01.936Z,97.80
2017-11-23T00:28:29.367Z,97.30
2017-11-23T00:30:56.855Z,97.70
2017-11-23T00:33:24.279Z,98.00
2017-11-23T00:35:52.466Z,98.10
2017-11-23T00:38:19.980Z,98.10
2017-11-23T00:40:47.377Z,97.50
2017-11-23T00:43:14.827Z,98.10
2017-11-23T00:45:42.252Z,97.20
2017-11-23T00:48:09.688Z,96.50
2017-11-23T00:50:37.108Z,96.40
2017-11-23T00:53:05.328Z,96.60
2017-11-23T00:55:32.808Z,96.60
2017-11-23T00:58:00.272Z,96.40
2017-11-23T01:00:27.706Z,96.20
2017-11-23T01:02:55.127Z,96.30
2017-11-23T01:05:22.564Z,96.50
2017-11-23T01:07:50.058Z,96.10
2017-11-23T01:10:17.479Z,96.50
2017-11-23T01:12:44.939Z,96.40
2017-11-23T01:15:12.992Z,96.70
2017-11-23T01:17:40.409Z,96.60
2017-11-23T01:20:08.615Z,96.40
2017-11-23T01:22:36.834Z,96.40
2017-11-23T01:25:04.260Z,96.10
2017-11-23T01:27:31.692Z,96.40
2017-11-23T01:29:59.887Z,96.20
2017-11-23T01:32:27.322Z,96.20
2017-11-23T01:34:55.523Z,96.10
2017-11-23T01:37:23.039Z,96.30
2017-11-23T01:39:50.463Z,95.90
2017-11-23T01:42:18.923Z,96.70
2017-11-23T01:44:47.155Z,96.30
2017-11-23T01:47:14.594Z,96.20
2017-11-23T01:49:42.070Z,96.50
2017-11-23T01:52:09.551Z,96.10
2017-11-23T01:54:36.983Z,96.60
2017-11-23T01:57:04.459Z,96.80
2017-11-23T01:59:31.895Z,96.30
2017-11-23T02:01:59.372Z,96.70
2017-11-23T02:04:27.156Z,96.50
2017-11-23T02:06:54.634Z,96.60
2017-11-23T02:09:22.867Z,97.00
2017-11-23T02:11:50.301Z,97.00
2017-11-23T02:14:18.504Z,96.50
2017-11-23T02:16:45.934Z,96.60
2017-11-23T02:19:14.127Z,96.40
2017-11-23T02:21:42.383Z,96.40
2017-11-23T02:24:10.579Z,96.40
2017-11-23T02:26:38.775Z,96.10
2017-11-23T02:29:06.226Z,96.10
2017-11-23T02:31:33.667Z,96.10
2017-11-23T02:34:01.858Z,96.30
2017-11-23T02:36:30.047Z,96.30
2017-11-23T02:38:57.535Z,96.30
2017-11-23T02:41:25.002Z,96.40
2017-11-23T02:43:52.458Z,96.70
2017-11-23T02:46:19.879Z,96.00
2017-11-23T02:48:48.298Z,97.10
2017-11-23T02:51:15.728Z,97.10
2017-11-23T02:53:43.956Z,96.80
2017-11-23T02:56:11.380Z,96.70
2017-11-23T02:58:38.823Z,97.10
2017-11-23T03:01:07.048Z,97.30
2017-11-23T03:03:34.483Z,97.20
2017-11-23T03:06:01.964Z,97.00
2017-11-23T03:08:29.427Z,97.00
2017-11-23T03:10:56.907Z,96.80
2017-11-23T03:13:24.332Z,96.90
2017-11-23T03:15:51.772Z,96.20
2017-11-23T03:18:19.965Z,96.90
2017-11-23T03:20:47.448Z,96.90
2017-11-23T03:23:14.863Z,96.70
2017-11-23T03:25:43.087Z,96.70
2017-11-23T03:28:10.541Z,96.70
2017-11-23T03:30:37.995Z,96.50
2017-11-23T03:33:05.423Z,96.10
2017-11-23T03:35:33.606Z,96.50
2017-11-23T03:38:01.819Z,96.40
2017-11-23T03:40:29.287Z,96.40
2017-11-23T03:42:56.748Z,96.50
2017-11-23T03:45:24.211Z,96.70
2017-11-23T03:47:51.652Z,96.60
2017-11-23T03:50:19.136Z,96.30
2017-11-23T03:52:46.576Z,96.30
2017-11-23T03:55:14.057Z,96.10
2017-11-23T03:57:41.558Z,95.90
2017-11-23T04:00:08.991Z,95.70
2017-11-23T04:02:36.411Z,96.10
2017-11-23T04:05:03.848Z,95.70
2017-11-23T04:07:32.078Z,96.40
2017-11-23T04:09:59.531Z,96.40
2017-11-23T04:12:27.004Z,96.10
2017-11-23T04:14:54.439Z,96.80
2017-11-23T04:17:21.890Z,96.40
2017-11-23T04:19:49.335Z,96.20
2017-11-23T04:22:17.527Z,96.60
2017-11-23T04:24:45.023Z,96.40
2017-11-23T04:27:12.491Z,96.60
2017-11-23T04:29:39.911Z,96.80
2017-11-23T04:32:07.404Z,97.00
2017-11-23T04:34:34.869Z,97.10
2017-11-23T04:37:02.374Z,96.90
2017-11-23T04:39:30.642Z,96.70
2017-11-23T04:41:58.075Z,97.00
2017-11-23T04:44:25.512Z,97.00
2017-11-23T04:46:53.001Z,97.40
2017-11-23T04:49:20.460Z,97.30
2017-11-23T04:51:47.911Z,97.90
2017-11-23T04:54:15.370Z,97.50
2017-11-23T04:56:42.835Z,97.40
2017-11-23T04:59:10.299Z,97.60
2017-11-23T05:01:37.763Z,97.50
2017-11-23T05:04:05.222Z,97.30
2017-11-23T05:06:32.679Z,98.00
2017-11-23T05:09:00.115Z,98.00
2017-11-23T05:11:27.544Z,97.90
2017-11-23T05:13:55.772Z,97.90
2017-11-23T05:16:23.183Z,97.90
2017-11-23T05:18:50.599Z,97.70
2017-11-23T05:21:18.075Z,97.80
2017-11-23T05:23:45.586Z,97.60
2017-11-23T05:26:13.091Z,97.90
2017-11-23T05:28:40.514Z,98.20
2017-11-23T05:31:08.723Z,97.80
2017-11-23T05:33:36.204Z,97.80
2017-11-23T05:36:03.669Z,98.40
2017-11-23T05:38:31.086Z,98.50
2017-11-23T05:40:58.523Z,98.30
2017-11-23T05:43:26.734Z,97.90
2017-11-23T05:45:54.929Z,98.80
2017-11-23T05:48:23.815Z,98.80
2017-11-23T05:50:51.255Z,98.00
2017-11-23T05:53:18.757Z,98.40
2017-11-23T05:55:46.700Z,98.50
2017-11-23T05:58:14.127Z,98.00
2017-11-23T06:00:42.324Z,98.20
2017-11-23T06:03:09.768Z,97.80
2017-11-23T06:05:37.200Z,98.30
2017-11-23T06:08:04.744Z,98.30
2017-11-23T06:10:32.167Z,98.70
2017-11-23T06:13:00.492Z,98.70
2017-11-23T06:15:27.949Z,98.70
2017-11-23T06:17:55.384Z,98.20
2017-11-23T06:20:22.815Z,98.20
2017-11-23T06:22:51.047Z,97.70
2017-11-23T06:25:18.739Z,97.70
2017-11-23T06:27:46.178Z,97.30
2017-11-23T06:30:13.635Z,97.30
2017-11-23T06:32:41.076Z,97.20
2017-11-23T06:35:08.555Z,96.70
2017-11-23T06:37:35.987Z,97.20
2017-11-23T06:40:03.424Z,97.30
2017-11-23T06:42:30.943Z,97.30
2017-11-23T06:44:58.379Z,97.30
2017-11-23T06:47:25.864Z,97.30
2017-11-23T06:49:53.336Z,97.10
2017-11-23T06:52:20.758Z,97.50
2017-11-23T06:54:48.197Z,97.20
2017-11-23T06:57:16.383Z,97.40
2017-11-23T06:59:44.587Z,97.50
2017-11-23T07:02:12.742Z,97.50
2017-11-23T07:04:40.959Z,97.10
2017-11-23T07:07:08.423Z,97.10
2017-11-23T07:09:35.878Z,97.10
2017-11-23T07:12:03.428Z,97.30
2017-11-23T07:14:30.907Z,97.40
2017-11-23T07:16:58.338Z,97.60
2017-11-23T07:19:25.824Z,97.10
2017-11-23T07:21:53.287Z,97.30
2017-11-23T07:24:20.711Z,97.30
2017-11-23T07:26:49.042Z,97.70
2017-11-23T07:29:16.471Z,97.80
2017-11-23T07:31:43.955Z,97.60
2017-11-23T07:34:11.407Z,97.50
2017-11-23T07:36:38.827Z,97.70
2017-11-23T07:39:07.031Z,97.40
2017-11-23T07:41:34.515Z,97.40
2017-11-23T07:44:01.943Z,97.40
2017-11-23T07:46:29.439Z,97.60
2017-11-23T07:48:56.949Z,97.50
2017-11-23T07:51:25.155Z,97.60
2017-11-23T07:53:52.638Z,97.40
2017-11-23T07:56:20.099Z,97.40
2017-11-23T07:58:47.653Z,97.50
2017-11-23T08:01:15.063Z,97.30
2017-11-23T08:03:42.506Z,97.40
2017-11-23T08:06:09.936Z,97.00
2017-11-23T08:08:37.451Z,97.50
2017-11-23T08:11:05.650Z,97.40
2017-11-23T08:13:33.879Z,97.70
2017-11-23T08:16:01.322Z,97.70
2017-11-23T08:18:28.760Z,97.70
2017-11-23T08:20:57.068Z,98.10
2017-11-23T08:23:24.529Z,98.10
2017-11-23T08:25:52.005Z,97.70
2017-11-23T08:28:19.445Z,98.00
2017-11-23T08:30:46.920Z,98.60
2017-11-23T08:33:14.375Z,97.90
2017-11-23T08:35:41.832Z,97.80
2017-11-23T08:38:09.265Z,97.80
2017-11-23T08:40:36.760Z,97.60
2017-11-23T08:43:04.194Z,97.00
2017-11-23T08:45:31.612Z,96.50
2017-11-23T08:47:59.054Z,97.00
2017-11-23T08:50:26.471Z,96.70
2017-11-23T08:52:53.923Z,96.60
2017-11-23T08:55:27.048Z,97.50
2017-11-23T08:57:54.479Z,97.50
2017-11-23T09:00:21.908Z,97.20
2017-11-23T09:02:51.179Z,97.50
2017-11-23T09:05:19.524Z,97.20
2017-11-23T09:07:47.738Z,97.40
2017-11-23T09:10:15.288Z,97.30
2017-11-23T09:12:43.688Z,97.50
2017-11-23T09:15:11.144Z,97.50
2017-11-23T09:17:38.603Z,97.70
2017-11-23T09:20:06.040Z,97.90
2017-11-23T09:22:33.527Z,97.50
2017-11-23T09:25:01.016Z,98.00
2017-11-23T09:27:28.446Z,97.50
2017-11-23T09:29:55.870Z,98.10
2017-11-23T09:32:24.092Z,97.50
2017-11-23T09:34:51.519Z,97.50
2017-11-23T09:37:18.944Z,98.00
2017-11-23T09:39:46.475Z,97.60
2017-11-23T09:42:13.890Z,97.90
2017-11-23T09:44:42.119Z,98.10
2017-11-23T09:47:09.543Z,98.10
2017-11-23T09:49:37.056Z,97.80
2017-11-23T09:52:04.604Z,97.50
2017-11-23T09:54:32.059Z,97.40
2017-11-23T09:56:59.523Z,97.70
2017-11-23T09:59:26.951Z,97.30
2017-11-23T10:01:54.446Z,98.10
2017-11-23T10:04:21.912Z,97.90
2017-11-23T10:06:49.454Z,97.80
2017-11-23T10:09:16.873Z,98.10
2017-11-23T10:11:45.115Z,98.10
2017-11-23T10:14:18.285Z,98.10
2017-11-23T10:16:45.849Z,98.20
2017-11-23T10:19:13.358Z,97.80
2017-11-23T10:21:42.315Z,98.20
2017-11-23T10:24:09.758Z,98.20
2017-11-23T10:26:37.188Z,98.20
2017-11-23T10:29:05.423Z,98.50
2017-11-23T10:31:32.866Z,98.90
2017-11-23T10:34:00.342Z,98.40
2017-11-23T10:36:27.762Z,98.70
2017-11-23T10:38:55.987Z,99.90
2017-11-23T10:41:23.416Z,99.90
2017-11-23T10:43:50.907Z,99.70
2017-11-23T10:46:18.378Z,99.90
2017-11-23T10:48:45.810Z,99.90
2017-11-23T10:51:13.243Z,99.90
2017-11-23T10:53:41.461Z,99.90
2017-11-23T10:56:08.940Z,99.90
2017-11-23T10:58:36.373Z,99.90
2017-11-23T11:01:04.667Z,99.90
2017-11-23T11:03:32.113Z,99.90
2017-11-23T11:05:59.590Z,99.90
2017-11-23T11:08:27.031Z,99.90
2017-11-23T11:10:54.719Z,99.90
2017-11-23T11:13:22.178Z,99.90
2017-11-23T11:15:49.599Z,99.90
2017-11-23T11:18:17.907Z,99.90
2017-11-23T11:20:45.315Z,99.90
2017-11-23T11:23:12.752Z,99.90
2017-11-23T11:25:40.167Z,99.90
2017-11-23T11:28:08.379Z,99.90
2017-11-23T11:30:35.905Z,99.90
2017-11-23T11:33:04.108Z,99.90
2017-11-23T11:35:31.531Z,99.90
2017-11-23T11:37:59.730Z,99.90
2017-11-23T11:40:27.155Z,99.90
2017-11-23T11:42:54.978Z,99.90
2017-11-23T11:45:22.404Z,99.90
2017-11-23T11:47:50.632Z,99.90
2017-11-23T11:50:18.063Z,99.90
2017-11-23T11:52:45.483Z,99.90
2017-11-23T11:55:12.920Z,99.90
2017-11-23T11:57:40.359Z,99.90
2017-11-23T12:00:07.833Z,99.90
2017-11-23T12:02:35.268Z,99.90
2017-11-23T12:05:02.758Z,99.90
2017-11-23T12:07:30.192Z,99.90
2017-11-23T12:09:57.628Z,99.90
2017-11-23T12:12:25.051Z,99.90
2017-11-23T12:15:04.448Z,99.90
2017-11-23T12:17:43.763Z,99.90
2017-11-23T12:20:15.782Z,99.90
2017-11-23T12:25:49.399Z,99.90
2017-11-23T12:28:28.866Z,99.90
2017-11-23T12:30:57.062Z,99.90
2017-11-23T12:33:24.496Z,99.90
2017-11-23T12:35:52.722Z,99.90
2017-11-23T12:38:20.154Z,99.90
2017-11-23T12:40:47.648Z,99.90
2017-11-23T12:43:15.078Z,99.90
2017-11-23T12:45:42.571Z,99.90
2017-11-23T12:48:10.030Z,99.90
2017-11-23T12:50:37.451Z,99.90
2017-11-23T12:53:05.638Z,99.90
2017-11-23T12:55:33.071Z,99.90
2017-11-23T12:58:00.682Z,99.90
2017-11-23T13:00:28.100Z,99.90
2017-11-23T13:02:56.341Z,99.90
2017-11-23T13:05:23.788Z,99.90
2017-11-23T13:07:51.231Z,99.90
2017-11-23T13:10:19.437Z,99.90
2017-11-23T13:12:46.871Z,99.90
2017-11-23T13:15:14.364Z,99.90
2017-11-23T13:17:41.919Z,99.90
2017-11-23T13:20:09.382Z,99.90
2017-11-23T13:22:36.884Z,99.90
2017-11-23T13:25:04.299Z,99.90
2017-11-23T13:27:31.812Z,99.90
2017-11-23T13:29:59.232Z,99.90
2017-11-23T13:32:26.691Z,99.90
2017-11-23T13:34:54.151Z,99.90
2017-11-23T13:37:21.571Z,99.90
2017-11-23T13:39:49.766Z,99.90
2017-11-23T13:42:17.211Z,99.90
2017-11-23T13:44:45.436Z,99.90
2017-11-23T13:47:12.867Z,99.90
2017-11-23T13:49:40.387Z,99.90
2017-11-23T13:52:07.827Z,99.90
2017-11-23T13:54:35.282Z,99.90
2017-11-23T13:57:02.717Z,99.90
2017-11-23T13:59:30.144Z,99.90
2017-11-23T14:01:58.375Z,99.90
2017-11-23T14:04:25.822Z,99.90
2017-11-23T14:06:53.238Z,99.90
2017-11-23T14:09:20.767Z,99.90
2017-11-23T14:11:48.214Z,99.90
2017-11-23T14:14:15.668Z,99.90
2017-11-23T14:16:43.140Z,99.90
2017-11-23T14:19:10.662Z,99.90
2017-11-23T14:21:38.070Z,99.90
2017-11-23T14:24:05.512Z,99.90
2017-11-23T14:26:32.993Z,99.90
2017-11-23T14:29:00.427Z,99.90
2017-11-23T14:31:27.911Z,99.90
2017-11-23T14:33:55.343Z,99.90
2017-11-23T14:36:22.831Z,99.90
2017-11-23T14:38:50.268Z,99.90
2017-11-23T14:41:17.704Z,99.90
2017-11-23T14:43:45.951Z,99.90
2017-11-23T14:46:13.382Z,99.90
2017-11-23T14:48:40.811Z,99.90
2017-11-23T14:51:08.990Z,99.90
2017-11-23T14:53:36.442Z,99.90
2017-11-23T14:56:03.866Z,99.90
2017-11-23T14:58:31.437Z,99.90
2017-11-23T15:00:58.863Z,99.90
2017-11-23T15:03:26.335Z,99.90
2017-11-23T15:05:53.804Z,99.90
2017-11-23T15:08:21.271Z,99.90
2017-11-23T15:10:48.706Z,99.90
2017-11-23T15:13:16.135Z,99.90
2017-11-23T15:15:44.368Z,99.90
2017-11-23T15:18:11.857Z,99.90
2017-11-23T15:20:39.269Z,99.90
2017-11-23T15:23:06.687Z,99.90
2017-11-23T15:25:34.126Z,99.90
2017-11-23T15:28:01.574Z,99.90
2017-11-23T15:30:29.004Z,99.90
2017-11-23T15:32:56.505Z,99.90
2017-11-23T15:35:23.956Z,99.90
2017-11-23T15:37:51.406Z,99.90
2017-11-23T15:40:18.835Z,99.90
2017-11-23T15:42:47.043Z,99.90
2017-11-23T15:45:14.519Z,99.90
2017-11-23T15:47:43.278Z,99.90
2017-11-23T15:50:11.577Z,99.90
2017-11-23T15:52:39.003Z,99.90
2017-11-23T15:55:07.196Z,99.90
2017-11-23T15:57:34.672Z,99.90
2017-11-23T16:00:02.153Z,99.90
2017-11-23T16:02:29.622Z,99.90
2017-11-23T16:04:57.044Z,99.90
2017-11-23T16:07:24.564Z,99.90
2017-11-23T16:09:52.105Z,99.90
2017-11-23T16:12:19.532Z,99.90
2017-11-23T16:14:46.968Z,99.90
2017-11-23T16:17:15.182Z,99.90
2017-11-23T16:19:42.609Z,99.90
2017-11-23T16:22:10.795Z,99.90
2017-11-23T16:24:39.015Z,99.90
2017-11-23T16:27:06.447Z,99.90
2017-11-23T16:29:33.871Z,99.90
2017-11-23T16:32:01.325Z,99.90
2017-11-23T16:34:28.742Z,99.90
2017-11-23T16:37:12.942Z,99.90
2017-11-23T16:39:40.379Z,99.90
2017-11-23T16:42:13.452Z,99.90
2017-11-23T16:44:46.608Z,99.90
2017-11-23T16:47:19.639Z,99.90
2017-11-23T16:49:52.891Z,99.90
2017-11-23T16:55:25.043Z,99.90
2017-11-23T16:58:04.943Z,99.90
2017-11-23T17:00:34.823Z,99.90
2017-11-23T17:03:08.727Z,99.90
2017-11-23T17:05:42.625Z,99.90
2017-11-23T17:08:15.807Z,99.90
2017-11-23T17:10:59.899Z,99.90
2017-11-23T17:13:29.171Z,99.90
2017-11-23T17:16:04.115Z,99.90
2017-11-23T17:18:33.321Z,99.90
2017-11-23T17:21:00.800Z,99.90
2017-11-23T17:23:28.255Z,99.90
2017-11-23T17:25:56.479Z,99.90
2017-11-23T17:28:23.927Z,99.90
2017-11-23T17:30:51.371Z,99.90
2017-11-23T17:33:18.827Z,99.90
2017-11-23T17:35:46.284Z,99.90
2017-11-23T17:38:13.744Z,99.90
2017-11-23T17:40:41.162Z,99.90
2017-11-23T17:43:09.362Z,99.90
2017-11-23T17:45:36.842Z,99.90
2017-11-23T17:48:04.307Z,99.90
2017-11-23T17:50:31.767Z,99.90
2017-11-23T17:52:59.198Z,99.90
2017-11-23T17:55:26.658Z,99.90
2017-11-23T17:57:54.079Z,99.90
2017-11-23T18:00:21.511Z,99.90
2017-11-23T18:02:48.935Z,99.90
2017-11-23T18:05:17.135Z,99.90
2017-11-23T18:07:44.618Z,99.90
2017-11-23T18:10:12.051Z,99.90
2017-11-23T18:12:39.474Z,99.90
2017-11-23T18:15:06.902Z,99.90
2017-11-23T18:17:34.335Z,99.90
2017-11-23T18:20:01.765Z,99.90
2017-11-23T18:22:29.963Z,99.90
2017-11-23T18:24:57.448Z,99.90
2017-11-23T18:27:24.882Z,99.90
2017-11-23T18:29:53.095Z,99.90
2017-11-23T18:32:20.540Z,99.90
2017-11-23T18:34:48.039Z,99.90
2017-11-23T18:37:15.480Z,99.90
2017-11-23T18:39:43.039Z,99.90
2017-11-23T18:42:10.466Z,99.90
2017-11-23T18:44:38.768Z,99.90
2017-11-23T18:47:06.199Z,99.90
2017-11-23T18:49:34.379Z,99.90
2017-11-23T18:52:02.571Z,99.90
2017-11-23T18:54:30.016Z,99.90
2017-11-23T18:56:58.355Z,99.90
2017-11-23T18:59:25.903Z,99.90
2017-11-23T19:01:53.324Z,99.90
2017-11-23T19:04:21.519Z,99.90
2017-11-23T19:06:49.056Z,99.90
2017-11-23T19:09:17.255Z,99.90
2017-11-23T19:11:44.752Z,99.90
2017-11-23T19:14:12.214Z,99.90
2017-11-23T19:16:39.794Z,99.90
2017-11-23T19:19:07.244Z,99.90
2017-11-23T19:21:34.680Z,99.90
2017-11-23T19:24:02.135Z,99.90
2017-11-23T19:26:29.628Z,99.90
2017-11-23T19:28:57.079Z,99.90
2017-11-23T19:31:24.627Z,99.90
2017-11-23T19:33:52.035Z,99.90
2017-11-23T19:36:20.279Z,99.90
2017-11-23T19:38:47.719Z,99.90
2017-11-23T19:41:15.904Z,99.90
2017-11-23T19:43:43.476Z,99.90
2017-11-23T19:46:10.952Z,99.90
2017-11-23T19:48:38.387Z,99.90
2017-11-23T19:51:05.814Z,99.90
2017-11-23T19:53:34.025Z,99.90
2017-11-23T19:56:01.468Z,99.90
2017-11-23T19:58:29.688Z,99.90
2017-11-23T20:00:57.141Z,99.90
2017-11-23T20:03:24.563Z,99.90
2017-11-23T20:05:52.750Z,99.90
2017-11-23T20:08:20.245Z,99.90
2017-11-23T20:10:47.706Z,99.90
2017-11-23T20:13:15.154Z,99.90
2017-11-23T20:15:42.574Z,99.90
2017-11-23T20:18:09.999Z,99.90
2017-11-23T20:20:37.422Z,99.90
2017-11-23T20:23:05.368Z,99.90
2017-11-23T20:25:32.799Z,99.90
2017-11-23T20:28:00.242Z,99.90
2017-11-23T20:30:27.698Z,99.90
2017-11-23T20:32:55.168Z,99.90
2017-11-23T20:35:22.623Z,99.90
2017-11-23T20:37:50.071Z,99.90
2017-11-23T20:40:17.495Z,99.90
2017-11-23T20:42:45.695Z,99.90
2017-11-23T20:45:13.146Z,99.90
2017-11-23T20:47:41.392Z,99.90
2017-11-23T20:50:08.933Z,99.90
2017-11-23T20:52:36.343Z,99.90
2017-11-23T20:55:04.555Z,99.90
2017-11-23T20:57:32.039Z,99.90
2017-11-23T20:59:59.479Z,99.90
2017-11-23T21:02:26.970Z,99.90
2017-11-23T21:04:54.391Z,99.90
2017-11-23T21:07:21.831Z,99.90
2017-11-23T21:09:50.067Z,99.90
2017-11-23T21:12:17.493Z,99.90
2017-11-23T21:14:44.914Z,99.90
2017-11-23T21:17:12.340Z,99.90
2017-11-23T21:19:39.803Z,99.90
2017-11-23T21:22:07.244Z,99.90
2017-11-23T21:24:34.679Z,99.90
2017-11-23T21:27:02.898Z,99.90
2017-11-23T21:29:30.318Z,99.90
2017-11-23T21:31:58.513Z,99.90
2017-11-23T21:34:25.991Z,99.90
2017-11-23T21:36:53.429Z,99.90
2017-11-23T21:39:21.612Z,99.90
2017-11-23T21:41:49.104Z,99.90
2017-11-23T21:44:16.515Z,99.90
2017-11-23T21:46:44.722Z,99.90
2017-11-23T21:49:12.147Z,99.90
2017-11-23T21:51:40.360Z,99.90
2017-11-23T21:54:07.838Z,99.90
2017-11-23T21:56:35.294Z,99.90
2017-11-23T21:59:02.728Z,99.90
2017-11-23T22:01:30.143Z,99.90
2017-11-23T22:03:57.684Z,99.90
2017-11-23T22:06:25.147Z,99.90
2017-11-23T22:08:52.606Z,99.90
2017-11-23T22:11:20.068Z,99.90
2017-11-23T22:13:47.531Z,99.90
2017-11-23T22:16:14.983Z,99.90
2017-11-23T22:18:42.412Z,99.90
2017-11-23T22:21:10.602Z,99.90
2017-11-23T22:23:38.018Z,99.90
2017-11-23T22:26:05.466Z,99.90
2017-11-23T22:28:32.899Z,99.90
2017-11-23T22:31:00.365Z,99.90
2017-11-23T22:33:27.851Z,99.90
2017-11-23T22:35:55.275Z,99.90
2017-11-23T22:38:22.703Z,99.90
2017-11-23T22:40:50.894Z,99.90
2017-11-23T22:43:19.108Z,99.90
2017-11-23T22:45:46.551Z,99.90
2017-11-23T22:48:14.750Z,99.90
2017-11-23T22:50:42.173Z,99.90
2017-11-23T22:53:10.363Z,99.90
2017-11-23T22:55:37.792Z,99.90
2017-11-23T22:58:05.319Z,99.90
2017-11-23T23:00:32.762Z,99.90
2017-11-23T23:03:00.248Z,99.90
2017-11-23T23:05:27.658Z,99.90
2017-11-23T23:07:55.853Z,99.90
2017-11-23T23:10:23.329Z,99.90
2017-11-23T23:12:50.754Z,99.90
2017-11-23T23:15:18.946Z,99.90
2017-11-23T23:17:46.430Z,99.90
2017-11-23T23:20:13.890Z,99.90
2017-11-23T23:22:41.351Z,99.90
2017-11-23T23:25:08.779Z,99.90
2017-11-23T23:27:36.971Z,99.90
2017-11-23T23:30:04.411Z,99.90
2017-11-23T23:32:32.639Z,99.90
2017-11-23T23:35:00.091Z,99.90
2017-11-23T23:37:27.551Z,99.90
2017-11-23T23:39:55.044Z,99.90
2017-11-23T23:42:22.466Z,99.90
2017-11-23T23:44:49.894Z,99.90
2017-11-23T23:47:18.151Z,99.90
2017-11-23T23:49:45.564Z,99.90
2017-11-23T23:52:13.048Z,99.90
2017-11-23T23:54:40.487Z,99.90
2017-11-23T23:57:07.914Z,99.90
2017-11-23T23:59:36.105Z,99.90
